This is the latest recevied weather packets stored in our database for station/object KI4NG. If no packets are shown the sender has not sent any weather packets the latest 10 day(s).
| Time | Temp. | Humidity | Pressure | Rain* | Wind** | Luminosity | Snow |
|---|---|---|---|---|---|---|---|
| 1778018043 | 21.67° C | 56% | 1011.2 hPa | 0 mm | - | 364 W/m² | - |
| 1778017741 | 21.67° C | 58% | 1011.4 hPa | 0 mm | - | 359 W/m² | - |
| 1778017439 | 21.67° C | 58% | 1011.3 hPa | 0 mm | - | 414 W/m² | - |
| 1778017136 | 21.67° C | 59% | 1011.3 hPa | 0 mm | - | 428 W/m² | - |
| 1778016833 | 21.67° C | 59% | 1011.3 hPa | 0 mm | - | 434 W/m² | - |
| 1778016529 | 21.67° C | 60% | 1011.4 hPa | 0 mm | - | 439 W/m² | - |
| 1778016226 | 21.11° C | 60% | 1011.8 hPa | 0 mm | - | 475 W/m² | - |
| 1778015922 | 20.56° C | 61% | 1011.7 hPa | 0 mm | - | 218 W/m² | - |
| 1778015620 | 20.56° C | 62% | 1012 hPa | 0 mm | - | 210 W/m² | - |
| 1778015316 | 20.56° C | 59% | 1011.7 hPa | 0 mm | - | 248 W/m² | - |
| 1778015014 | 21.11° C | 57% | 1011.7 hPa | 0 mm | - | 275 W/m² | - |
| 1778014710 | 20.56° C | 60% | 1012.2 hPa | 0 mm | - | 347 W/m² | - |
| 1778014409 | 20° C | 63% | 1012.2 hPa | 0 mm | - | 166 W/m² | - |
| 1778014105 | 20° C | 61% | 1012.3 hPa | 0 mm | - | 129 W/m² | - |
| 1778013803 | 20° C | 61% | 1012.4 hPa | 0 mm | - | 147 W/m² | - |
| 1778013500 | 20° C | 61% | 1012.4 hPa | 0 mm | - | 139 W/m² | - |
| 1778013197 | 20° C | 61% | 1012.4 hPa | 0 mm | - | 157 W/m² | - |
| 1778012893 | 20° C | 62% | 1012.5 hPa | 0 mm | - | 181 W/m² | - |
| 1778012589 | 20.56° C | 63% | 1012.5 hPa | 0 mm | - | 168 W/m² | - |
| 1778012286 | 21.11° C | 60% | 1012.6 hPa | 0 mm | - | 173 W/m² | - |
| 1778011983 | 21.67° C | 58% | 1012.5 hPa | 0 mm | - | 548 W/m² | - |
| 1778011682 | 21.67° C | 59% | 1012.6 hPa | 0 mm | - | 407 W/m² | - |
| 1778011378 | 21.67° C | 59% | 1012.9 hPa | 0 mm | - | 452 W/m² | - |
| 1778011073 | 20.56° C | 60% | 1013 hPa | 0 mm | - | 801 W/m² | - |
| 1778010771 | 20.56° C | 61% | 1013.1 hPa | 0 mm | - | 319 W/m² | - |
* Rain latest hour (hover to see other rain measurements)
** Current wind speed in m/s (hover to see current wind gust speed)